Airfield :
LOGIN :

Register | Disclaimer

   EN    FR    IT 

 










Legend :    VFR   Marginal VFR   IFR   Intensive IFR   Very Intensive IFR
Visi :
Ceiling :
>= 8 km
>= 3000ft
5 to 8 km
1000 to 3000 ft
1500m to 5 km
500 to 1000 ft
800 to 1500m
200 to 500 ft
< 800m
< 200 ft
Symbols :   Thunderstorms  Fog  Heavy snow  Heavy precipitations  Wind > 20 kt
SIGMETs :     Misc.  Thunderstorms  Icing  Turbulence  Mountain Waves  Volcanic Ashes






- Airport Elevation : 699 ft
- IATA code : PAD


EDLP - Paderborn Lippstadt

CURRENT METAR :
  • 270620Z 22006KT 9999 FEW014 01/M00 Q1003

EXPIRED METARs :
  • 270550Z 23008KT 9999 BKN015 BKN020 01/M01 Q1003
  • 270520Z 23008KT 9999 SCT015 BKN020 01/M00 Q1003
  • 270450Z 24009KT 9999 FEW018 SCT034 01/M00 Q1004
  • 270420Z 23010KT 9999 SCT012 BKN017 BKN045 02/M00 Q1004
  • 270350Z 24008KT 9999 OVC013 02/00 Q1004

TAF TAF EDLP
Valid from the 27 at 06:00 until the 28 at 06:00 UTC


270500Z 2706/2806 25010KT 9999 SCT011 BKN015
TEMPO 2706/2708 BKN012
BECMG 2708/2711 19009KT
BECMG 2711/2714 13005KT
TEMPO 2714/2718 VRB03KT 4500 RASN BKN010
BECMG 2718/2721 27008KT BKN007
TEMPO 2718/2801 2000 SN BKN002
TEMPO 2801/2805 BKN004



MET'MAP, your aeronautical weather chart ! - Copyright ORBIFLY December 2007 - Disclaimer

ORBIFLY MET'MAP TEAM :

Programming & Development : Alexandra Zaïnal
Concept & original design : Baudouin d'Aumeries
Assistance for programming : Marc-Olivier Méhu
Technical & hardware support : Manuel Goepfert

Contact : metmap@orbifly.com




SOURCES & CREDITS :

   NOAA